createdAt,value
2022-08-30T00:02:01.329Z,20.10
2022-08-30T00:04:30.939Z,20.03
2022-08-30T00:06:59.049Z,19.30
2022-08-30T00:09:27.184Z,19.43
2022-08-30T00:11:55.284Z,19.10
2022-08-30T00:14:23.399Z,21.40
2022-08-30T00:16:51.514Z,20.83
2022-08-30T00:19:19.575Z,20.90
2022-08-30T00:21:50.185Z,21.03
2022-08-30T00:24:18.529Z,20.70
2022-08-30T00:26:46.632Z,19.30
2022-08-30T00:29:14.784Z,18.63
2022-08-30T00:31:42.898Z,19.67
2022-08-30T00:34:11.026Z,19.63
2022-08-30T00:36:39.186Z,19.00
2022-08-30T00:39:08.658Z,18.23
2022-08-30T00:41:37.345Z,19.27
2022-08-30T00:44:05.783Z,19.03
2022-08-30T00:46:33.963Z,17.77
2022-08-30T00:49:06.143Z,18.00
2022-08-30T00:51:34.819Z,17.40
2022-08-30T00:54:03.530Z,17.70
2022-08-30T00:56:35.117Z,18.20
2022-08-30T00:59:05.709Z,18.57
2022-08-30T01:01:36.051Z,17.77
2022-08-30T01:04:06.933Z,17.80
2022-08-30T01:06:35.127Z,18.73
2022-08-30T01:09:04.994Z,18.70
2022-08-30T01:11:37.881Z,17.20
2022-08-30T01:14:07.771Z,18.17
2022-08-30T01:16:37.003Z,17.73
2022-08-30T01:19:07.511Z,18.30
2022-08-30T01:21:44.680Z,18.20
2022-08-30T01:24:15.051Z,18.17
2022-08-30T01:26:43.164Z,18.80
2022-08-30T01:29:14.804Z,18.57
2022-08-30T01:31:43.019Z,18.10
2022-08-30T01:34:12.516Z,20.47
2022-08-30T01:36:45.296Z,18.60
2022-08-30T01:39:17.200Z,18.43
2022-08-30T01:41:45.553Z,19.40
2022-08-30T01:44:14.738Z,18.10
2022-08-30T01:46:45.799Z,18.57
2022-08-30T01:49:16.024Z,18.83
2022-08-30T01:51:45.170Z,19.10
2022-08-30T01:54:14.727Z,22.97
2022-08-30T01:56:42.942Z,18.70
2022-08-30T01:59:11.183Z,19.40
2022-08-30T02:01:40.045Z,20.70
2022-08-30T02:04:10.101Z,18.67
2022-08-30T02:06:40.238Z,20.43
2022-08-30T02:09:09.168Z,21.53
2022-08-30T02:11:39.367Z,21.20
2022-08-30T02:14:07.782Z,20.87
2022-08-30T02:16:37.895Z,21.23
2022-08-30T02:19:06.052Z,20.10
2022-08-30T02:21:34.450Z,21.93
2022-08-30T02:24:02.543Z,23.50
2022-08-30T02:26:32.057Z,22.90
2022-08-30T02:29:01.535Z,24.43
2022-08-30T02:31:29.663Z,22.30
2022-08-30T02:33:58.090Z,22.70
2022-08-30T02:36:26.266Z,22.83
2022-08-30T02:38:54.840Z,22.70
2022-08-30T02:41:23.587Z,21.87
2022-08-30T02:43:52.392Z,22.80
2022-08-30T02:46:21.969Z,23.13
2022-08-30T02:48:50.103Z,22.60
2022-08-30T02:51:18.270Z,24.60
2022-08-30T02:53:47.120Z,24.77
2022-08-30T02:56:16.231Z,25.23
2022-08-30T02:58:45.264Z,22.60
2022-08-30T03:01:16.146Z,24.07
2022-08-30T03:03:47.024Z,20.80
2022-08-30T03:06:15.988Z,22.30
2022-08-30T03:08:44.160Z,22.20
2022-08-30T03:11:13.786Z,21.57
2022-08-30T03:13:42.229Z,22.37
2022-08-30T03:16:10.494Z,22.53
2022-08-30T03:18:38.671Z,22.97
2022-08-30T03:21:13.015Z,20.70
2022-08-30T03:23:42.571Z,21.50
2022-08-30T03:26:12.706Z,20.80
2022-08-30T03:28:40.883Z,21.43
2022-08-30T03:31:09.639Z,21.83
2022-08-30T03:33:40.042Z,22.23
2022-08-30T03:36:09.159Z,21.37
2022-08-30T03:38:39.417Z,21.67
2022-08-30T03:41:07.990Z,21.97
2022-08-30T03:43:37.445Z,21.57
2022-08-30T03:46:07.836Z,21.90
2022-08-30T03:48:36.149Z,21.13
2022-08-30T03:51:05.993Z,21.50
2022-08-30T03:53:34.418Z,21.47
2022-08-30T03:56:04.988Z,23.70
2022-08-30T03:58:34.482Z,23.87
2022-08-30T04:01:02.711Z,22.30
2022-08-30T04:03:30.839Z,22.47
2022-08-30T04:06:00.584Z,23.20
2022-08-30T04:08:29.032Z,23.50
2022-08-30T04:10:57.408Z,23.00
2022-08-30T04:13:26.863Z,22.20
2022-08-30T04:15:54.982Z,23.60
2022-08-30T04:18:23.808Z,23.60
2022-08-30T04:20:52.691Z,22.87
2022-08-30T04:23:21.227Z,22.70
2022-08-30T04:25:49.355Z,23.80
2022-08-30T04:28:17.527Z,24.63
2022-08-30T04:30:46.998Z,23.70
2022-08-30T04:33:16.429Z,24.47
2022-08-30T04:35:46.415Z,24.60
2022-08-30T04:38:16.010Z,22.97
2022-08-30T04:40:45.614Z,24.77
2022-08-30T04:43:13.894Z,24.40
2022-08-30T04:45:43.077Z,23.80
2022-08-30T04:48:12.704Z,24.30
2022-08-30T04:50:41.084Z,25.33
2022-08-30T04:53:13.642Z,25.13
2022-08-30T04:55:43.371Z,24.20
2022-08-30T04:58:11.551Z,24.67
2022-08-30T05:00:42.133Z,23.70
2022-08-30T05:03:10.480Z,23.10
2022-08-30T05:05:43.064Z,22.40
2022-08-30T05:08:13.854Z,23.47
2022-08-30T05:10:43.597Z,21.63
2022-08-30T05:13:11.882Z,22.40
2022-08-30T05:15:40.401Z,23.60
2022-08-30T05:18:11.554Z,21.43
2022-08-30T05:20:44.353Z,21.97
2022-08-30T05:23:12.760Z,21.63
2022-08-30T05:25:42.586Z,20.63
2022-08-30T05:28:10.782Z,22.97
2022-08-30T05:30:39.411Z,22.07
2022-08-30T05:33:07.718Z,22.20
2022-08-30T05:35:35.861Z,22.10
2022-08-30T05:38:05.365Z,22.70
2022-08-30T05:40:35.187Z,22.53
2022-08-30T05:43:03.344Z,23.53
2022-08-30T05:45:31.538Z,20.90
2022-08-30T05:47:59.720Z,21.67
2022-08-30T05:50:27.815Z,21.97
2022-08-30T05:52:56.943Z,22.43
2022-08-30T05:55:26.433Z,21.50
2022-08-30T05:57:54.566Z,20.40
2022-08-30T06:00:23.683Z,20.90
2022-08-30T06:02:55.090Z,22.67
2022-08-30T06:05:23.263Z,22.00
2022-08-30T06:07:51.491Z,21.10
2022-08-30T06:10:19.798Z,21.50
2022-08-30T06:12:49.287Z,21.27
2022-08-30T06:15:17.725Z,21.57
2022-08-30T06:17:45.863Z,22.67
2022-08-30T06:20:14.115Z,23.87
2022-08-30T06:22:42.232Z,22.67
2022-08-30T06:25:11.709Z,21.20
2022-08-30T06:27:39.938Z,20.33
2022-08-30T06:30:11.625Z,21.27
2022-08-30T06:32:40.444Z,22.17
2022-08-30T06:35:09.782Z,22.47
2022-08-30T06:37:37.891Z,22.80
2022-08-30T06:40:07.086Z,23.43
2022-08-30T06:42:35.314Z,25.40
2022-08-30T06:45:10.461Z,26.13
2022-08-30T06:47:41.638Z,25.57
2022-08-30T06:50:14.355Z,27.97
2022-08-30T06:52:43.839Z,28.63
2022-08-30T06:55:12.396Z,28.43
2022-08-30T06:57:40.864Z,28.33
2022-08-30T07:00:12.096Z,27.93
2022-08-30T07:02:41.969Z,28.20
2022-08-30T07:05:18.029Z,28.73
2022-08-30T07:07:47.005Z,29.30
2022-08-30T07:10:16.341Z,27.40
2022-08-30T07:12:44.428Z,28.00
2022-08-30T07:15:13.043Z,25.47
2022-08-30T07:18:00.255Z,26.40
2022-08-30T07:20:28.387Z,26.17
2022-08-30T07:23:09.224Z,26.50
2022-08-30T07:25:37.583Z,25.60
2022-08-30T07:28:06.702Z,23.43
2022-08-30T07:30:36.230Z,24.37
2022-08-30T07:33:06.222Z,25.50
2022-08-30T07:35:34.503Z,22.70
2022-08-30T07:38:02.614Z,23.90
2022-08-30T07:40:30.793Z,23.30
2022-08-30T07:43:02.068Z,24.17
2022-08-30T07:45:30.299Z,26.37
2022-08-30T07:47:58.733Z,24.87
2022-08-30T07:50:28.201Z,25.30
2022-08-30T07:52:56.276Z,25.00
2022-08-30T07:55:24.813Z,24.13
2022-08-30T07:57:52.970Z,22.30
2022-08-30T08:00:21.267Z,22.83
2022-08-30T08:02:49.567Z,21.60
2022-08-30T08:05:20.123Z,21.97
2022-08-30T08:07:51.442Z,22.37
2022-08-30T08:10:19.623Z,22.63
2022-08-30T08:12:48.506Z,23.07
2022-08-30T08:15:16.622Z,24.10
2022-08-30T08:17:44.734Z,24.47
2022-08-30T08:20:12.927Z,22.40
2022-08-30T08:22:41.034Z,23.20
2022-08-30T08:25:10.911Z,25.80
2022-08-30T08:27:39.018Z,24.77
2022-08-30T08:30:08.287Z,22.83
2022-08-30T08:32:36.443Z,25.60
2022-08-30T08:35:05.267Z,24.00
2022-08-30T08:37:33.394Z,25.30
2022-08-30T08:40:01.607Z,20.93
2022-08-30T08:42:41.506Z,23.07
2022-08-30T08:45:15.250Z,21.80
2022-08-30T08:47:54.344Z,22.87
2022-08-30T08:50:24.674Z,19.40
2022-08-30T08:53:20.523Z,21.67
2022-08-30T08:55:59.135Z,22.53
2022-08-30T08:58:32.298Z,22.00
2022-08-30T09:01:00.622Z,23.47
2022-08-30T09:03:30.447Z,22.20
2022-08-30T09:05:59.237Z,23.17
2022-08-30T09:08:27.957Z,24.53
2022-08-30T09:11:01.594Z,24.10
2022-08-30T09:13:31.165Z,23.40
2022-08-30T09:16:00.645Z,22.43
2022-08-30T09:18:45.594Z,24.63
2022-08-30T09:21:14.954Z,25.43
2022-08-30T09:23:50.817Z,24.90
2022-08-30T09:26:30.808Z,24.50
2022-08-30T09:29:01.111Z,24.37
2022-08-30T09:31:32.099Z,24.83
2022-08-30T09:34:03.437Z,22.97
2022-08-30T09:36:36.257Z,22.80
2022-08-30T09:39:06.962Z,23.97
2022-08-30T09:41:42.602Z,22.07
2022-08-30T09:44:16.860Z,19.73
2022-08-30T09:46:48.691Z,22.20
2022-08-30T09:49:31.139Z,23.83
2022-08-30T09:52:10.603Z,23.10
2022-08-30T09:54:46.508Z,22.90
2022-08-30T09:57:33.948Z,23.90
2022-08-30T10:00:17.361Z,24.40
2022-08-30T10:02:57.998Z,23.70
2022-08-30T10:05:32.511Z,24.40
2022-08-30T10:08:12.684Z,23.40
2022-08-30T10:10:50.770Z,24.20
2022-08-30T10:13:37.214Z,22.40
2022-08-30T10:16:20.344Z,22.97
2022-08-30T10:18:55.584Z,22.30
2022-08-30T10:21:29.365Z,24.50
2022-08-30T10:24:02.363Z,21.10
2022-08-30T10:26:36.849Z,23.50
2022-08-30T10:29:11.989Z,22.30
2022-08-30T10:31:48.605Z,21.03
2022-08-30T10:34:21.922Z,20.97
2022-08-30T10:36:57.539Z,21.73
2022-08-30T10:39:31.097Z,21.63
2022-08-30T10:42:07.950Z,20.10
2022-08-30T10:44:42.381Z,21.50
2022-08-30T10:47:24.787Z,21.17
2022-08-30T10:50:03.623Z,19.90
2022-08-30T10:52:37.645Z,21.00
2022-08-30T10:55:10.715Z,22.47
2022-08-30T10:57:42.929Z,21.67
2022-08-30T11:00:15.260Z,19.80
2022-08-30T11:03:29.157Z,21.70
2022-08-30T11:06:09.873Z,20.13
2022-08-30T11:09:02.309Z,20.10
2022-08-30T11:11:43.494Z,18.90
2022-08-30T11:14:16.816Z,18.53
2022-08-30T11:16:48.418Z,19.90
2022-08-30T11:19:22.206Z,18.73
2022-08-30T11:21:52.287Z,18.43
2022-08-30T11:24:22.929Z,17.77
2022-08-30T11:27:03.451Z,18.43
2022-08-30T11:29:40.115Z,18.90
2022-08-30T11:32:59.659Z,18.30
2022-08-30T11:35:48.153Z,18.97
2022-08-30T11:39:05.788Z,17.37
2022-08-30T11:41:41.920Z,17.37
2022-08-30T11:44:27.758Z,16.00
2022-08-30T11:46:58.555Z,16.20
2022-08-30T11:49:46.277Z,16.20
2022-08-30T11:52:41.393Z,17.20
2022-08-30T11:55:27.936Z,15.13
2022-08-30T11:58:07.644Z,15.70
2022-08-30T12:00:42.198Z,16.53
2022-08-30T12:03:31.363Z,15.60
2022-08-30T12:06:02.071Z,15.13
2022-08-30T12:08:58.010Z,14.83
2022-08-30T12:11:55.802Z,15.40
2022-08-30T12:14:52.107Z,14.73
2022-08-30T12:17:45.415Z,13.57
2022-08-30T12:20:22.498Z,13.90
2022-08-30T12:22:51.821Z,15.47
2022-08-30T12:25:26.214Z,13.40
2022-08-30T12:28:14.701Z,14.10
2022-08-30T12:30:46.735Z,14.40
2022-08-30T12:33:29.301Z,14.70
2022-08-30T12:35:59.732Z,14.67
2022-08-30T12:38:29.794Z,13.50
2022-08-30T12:41:00.806Z,14.47
2022-08-30T12:43:40.415Z,15.37
2022-08-30T12:46:17.430Z,14.20
2022-08-30T12:48:46.612Z,14.03
2022-08-30T12:51:38.043Z,14.43
2022-08-30T12:54:16.513Z,14.50
2022-08-30T12:56:57.481Z,14.60
2022-08-30T12:59:52.821Z,14.23
2022-08-30T13:02:27.375Z,15.20
2022-08-30T13:04:57.079Z,14.53
2022-08-30T13:07:32.577Z,16.50
2022-08-30T13:10:11.956Z,14.93
2022-08-30T13:12:40.463Z,15.47
2022-08-30T13:15:28.289Z,16.10
2022-08-30T13:18:27.617Z,16.97
2022-08-30T13:21:12.663Z,17.40
2022-08-30T13:23:40.870Z,16.87
2022-08-30T13:26:09.596Z,16.00
2022-08-30T13:28:49.148Z,16.93
2022-08-30T13:31:17.695Z,17.27
2022-08-30T13:33:47.337Z,15.63
2022-08-30T13:36:16.387Z,16.07
2022-08-30T13:38:44.517Z,16.47
2022-08-30T13:41:12.762Z,16.80
2022-08-30T13:46:29.097Z,15.40
2022-08-30T13:49:04.723Z,16.17
2022-08-30T13:51:33.149Z,16.30
2022-08-30T13:54:03.143Z,17.47
2022-08-30T13:56:32.651Z,16.07
2022-08-30T13:59:02.762Z,17.20
2022-08-30T14:01:31.533Z,18.47
2022-08-30T14:04:21.593Z,17.67
2022-08-30T14:09:38.839Z,18.47
2022-08-30T14:12:07.760Z,16.83
2022-08-30T14:14:42.546Z,18.00
2022-08-30T14:17:12.584Z,18.70
2022-08-30T14:19:42.266Z,17.00
2022-08-30T14:22:10.570Z,19.07
2022-08-30T14:24:38.801Z,18.90
2022-08-30T14:27:07.086Z,18.83
2022-08-30T14:29:36.146Z,18.30
2022-08-30T14:32:05.915Z,17.97
2022-08-30T14:34:34.218Z,16.50
2022-08-30T14:37:06.708Z,16.73
2022-08-30T14:39:35.254Z,16.50
2022-08-30T14:42:07.414Z,16.00
2022-08-30T14:44:55.299Z,16.83
2022-08-30T14:47:29.456Z,16.00
2022-08-30T14:50:00.867Z,17.47
2022-08-30T14:52:30.876Z,17.17
2022-08-30T14:55:09.065Z,15.37
2022-08-30T14:57:38.330Z,16.27
2022-08-30T15:00:09.075Z,15.33
2022-08-30T15:02:37.383Z,16.20
2022-08-30T15:05:06.925Z,15.73
2022-08-30T15:07:38.852Z,15.77
2022-08-30T15:10:08.579Z,17.63
2022-08-30T15:12:36.794Z,16.43
2022-08-30T15:15:05.287Z,16.57
2022-08-30T15:17:33.937Z,15.73
2022-08-30T15:20:02.442Z,17.60
2022-08-30T15:22:30.718Z,17.00
2022-08-30T15:25:01.657Z,16.73
2022-08-30T15:27:29.896Z,17.03
2022-08-30T15:29:58.795Z,17.80
2022-08-30T15:32:27.032Z,17.70
2022-08-30T15:34:56.034Z,16.70
2022-08-30T15:37:24.407Z,17.30
2022-08-30T15:39:53.263Z,18.97
2022-08-30T15:42:22.811Z,17.40
2022-08-30T15:44:51.982Z,18.50
2022-08-30T15:47:22.535Z,18.80
2022-08-30T15:49:56.578Z,17.20
2022-08-30T15:52:25.332Z,17.20
2022-08-30T15:54:53.639Z,17.17
2022-08-30T15:57:24.331Z,18.13
2022-08-30T15:59:54.489Z,17.33
2022-08-30T16:02:27.546Z,17.27
2022-08-30T16:04:56.283Z,17.03
2022-08-30T16:07:24.488Z,17.73
2022-08-30T16:09:54.127Z,17.70
2022-08-30T16:12:24.006Z,18.57
2022-08-30T16:14:52.353Z,17.93
2022-08-30T16:17:20.534Z,18.13
2022-08-30T16:19:48.663Z,17.77
2022-08-30T16:22:22.103Z,19.90
2022-08-30T16:24:51.509Z,19.00
2022-08-30T16:27:21.145Z,19.10
2022-08-30T16:29:50.864Z,19.90
2022-08-30T16:32:19.092Z,21.97
2022-08-30T16:34:47.535Z,19.90
2022-08-30T16:37:15.648Z,20.07
2022-08-30T16:39:46.708Z,21.00
2022-08-30T16:42:21.070Z,20.43
2022-08-30T16:44:51.331Z,19.33
2022-08-30T16:47:20.969Z,20.57
2022-08-30T16:49:49.111Z,19.63
2022-08-30T16:52:18.888Z,19.20
2022-08-30T16:54:47.551Z,18.63
2022-08-30T16:57:20.656Z,17.27
2022-08-30T16:59:52.400Z,17.87
2022-08-30T17:02:20.721Z,16.27
2022-08-30T17:04:52.863Z,18.30
2022-08-30T17:07:22.315Z,18.80
2022-08-30T17:09:51.212Z,19.70
2022-08-30T17:12:19.336Z,18.13
2022-08-30T17:14:47.617Z,16.60
2022-08-30T17:17:17.473Z,18.83
2022-08-30T17:19:50.177Z,20.57
2022-08-30T17:22:18.296Z,18.27
2022-08-30T17:24:49.706Z,23.37
2022-08-30T17:27:17.938Z,23.50
2022-08-30T17:29:46.053Z,23.00
2022-08-30T17:32:14.144Z,22.97
2022-08-30T17:34:43.886Z,25.17
2022-08-30T17:37:12.690Z,24.63
2022-08-30T17:39:41.083Z,24.37
2022-08-30T17:42:09.195Z,23.73
2022-08-30T17:44:38.087Z,24.07
2022-08-30T17:47:11.271Z,23.60
2022-08-30T17:49:39.963Z,24.20
2022-08-30T17:52:11.566Z,24.10
2022-08-30T17:54:40.768Z,22.00
2022-08-30T17:57:11.457Z,23.60
2022-08-30T17:59:40.786Z,22.73
2022-08-30T18:02:11.314Z,22.30
2022-08-30T18:04:41.753Z,23.40
2022-08-30T18:07:12.894Z,20.87
2022-08-30T18:09:41.760Z,21.50
2022-08-30T18:12:11.118Z,20.50
2022-08-30T18:14:39.654Z,20.50
2022-08-30T18:17:08.335Z,21.57
2022-08-30T18:19:46.107Z,21.30
2022-08-30T18:22:16.605Z,18.53
2022-08-30T18:24:46.011Z,18.77
2022-08-30T18:27:15.522Z,17.97
2022-08-30T18:29:43.694Z,16.57
2022-08-30T18:32:13.371Z,17.87
2022-08-30T18:34:42.910Z,16.63
2022-08-30T18:37:12.363Z,19.50
2022-08-30T18:39:42.809Z,18.90
2022-08-30T18:42:11.583Z,18.43
2022-08-30T18:44:40.505Z,17.50
2022-08-30T18:47:12.795Z,16.57
2022-08-30T18:49:41.175Z,17.70
2022-08-30T18:52:10.938Z,17.90
2022-08-30T18:54:40.884Z,17.10
2022-08-30T18:57:11.059Z,17.87
2022-08-30T18:59:39.482Z,18.47
2022-08-30T19:02:12.797Z,17.80
2022-08-30T19:04:42.841Z,16.90
2022-08-30T19:07:13.475Z,23.03
2022-08-30T19:09:43.308Z,24.10
2022-08-30T19:12:15.006Z,27.00
2022-08-30T19:14:44.252Z,32.10
2022-08-30T19:17:13.215Z,28.93
2022-08-30T19:19:47.437Z,26.40
2022-08-30T19:22:17.474Z,24.83
2022-08-30T19:24:47.236Z,24.07
2022-08-30T19:27:17.213Z,23.60
2022-08-30T19:29:45.435Z,25.20
2022-08-30T19:32:13.754Z,25.50
2022-08-30T19:34:42.234Z,25.80
2022-08-30T19:37:17.936Z,23.53
2022-08-30T19:39:47.238Z,23.63
2022-08-30T19:42:16.728Z,23.27
2022-08-30T19:44:44.916Z,23.10
2022-08-30T19:47:13.167Z,23.00
2022-08-30T19:49:41.334Z,24.10
2022-08-30T19:52:09.955Z,24.60
2022-08-30T19:54:38.645Z,24.33
2022-08-30T19:57:10.457Z,24.70
2022-08-30T19:59:40.310Z,24.30
2022-08-30T20:02:09.309Z,23.97
2022-08-30T20:04:42.484Z,24.23
2022-08-30T20:07:11.060Z,25.63
2022-08-30T20:09:39.184Z,27.70
2022-08-30T20:12:07.660Z,29.47
2022-08-30T20:14:35.756Z,29.20
2022-08-30T20:17:05.278Z,29.23
2022-08-30T20:19:40.104Z,29.97
2022-08-30T20:22:08.550Z,28.20
2022-08-30T20:24:37.007Z,28.70
2022-08-30T20:27:05.707Z,28.17
2022-08-30T20:29:34.500Z,28.97
2022-08-30T20:32:03.206Z,28.93
2022-08-30T20:34:33.695Z,28.30
2022-08-30T20:37:01.799Z,26.27
2022-08-30T20:39:30.035Z,23.67
2022-08-30T20:41:58.306Z,23.60
2022-08-30T20:44:26.490Z,25.40
2022-08-30T20:46:54.587Z,22.80
2022-08-30T20:49:22.869Z,25.40
2022-08-30T20:51:54.470Z,28.23
2022-08-30T20:54:22.844Z,27.00
2022-08-30T20:56:51.483Z,28.07
2022-08-30T20:59:21.073Z,25.60
2022-08-30T21:01:49.929Z,25.90
2022-08-30T21:04:18.869Z,27.57
2022-08-30T21:06:47.020Z,27.10
2022-08-30T21:09:16.640Z,30.97
2022-08-30T21:11:45.342Z,30.17
2022-08-30T21:14:13.607Z,29.97
2022-08-30T21:16:41.952Z,31.77
2022-08-30T21:19:10.255Z,31.10
2022-08-30T21:21:38.330Z,31.27
2022-08-30T21:24:10.100Z,31.73
2022-08-30T21:26:41.573Z,31.80
2022-08-30T21:29:09.992Z,32.30
2022-08-30T21:31:38.956Z,34.57
2022-08-30T21:34:08.493Z,34.63
2022-08-30T21:36:45.837Z,36.90
2022-08-30T21:39:17.369Z,36.20
2022-08-30T21:41:47.511Z,34.80
2022-08-30T21:44:18.991Z,34.30
2022-08-30T21:46:48.871Z,36.20
2022-08-30T21:49:19.150Z,35.63
2022-08-30T21:51:49.314Z,33.83
2022-08-30T21:54:18.224Z,32.57
2022-08-30T21:56:49.615Z,33.17
2022-08-30T21:59:19.463Z,33.13
2022-08-30T22:01:49.018Z,33.20
2022-08-30T22:04:17.619Z,32.27
2022-08-30T22:06:50.171Z,34.87
2022-08-30T22:09:20.915Z,36.53
2022-08-30T22:11:52.154Z,34.30
2022-08-30T22:14:21.294Z,33.00
2022-08-30T22:16:49.887Z,32.13
2022-08-30T22:19:23.147Z,32.57
2022-08-30T22:21:52.481Z,31.70
2022-08-30T22:24:23.598Z,29.27
2022-08-30T22:26:53.056Z,36.20
2022-08-30T22:29:21.859Z,38.00
2022-08-30T22:31:49.996Z,35.83
2022-08-30T22:34:18.166Z,33.50
2022-08-30T22:36:46.365Z,33.90
2022-08-30T22:39:14.577Z,31.73
2022-08-30T22:41:44.221Z,34.07
2022-08-30T22:44:14.256Z,35.93
2022-08-30T22:46:42.337Z,33.13
2022-08-30T22:49:11.630Z,30.70
2022-08-30T22:51:41.241Z,32.80
2022-08-30T22:54:10.882Z,30.63
2022-08-30T22:56:40.208Z,31.70
2022-08-30T22:59:08.798Z,29.07
2022-08-30T23:01:42.409Z,30.20
2022-08-30T23:04:12.227Z,26.80
2022-08-30T23:06:41.248Z,24.90
2022-08-30T23:09:15.015Z,25.60
2022-08-30T23:11:43.123Z,26.50
2022-08-30T23:14:11.352Z,23.93
2022-08-30T23:16:40.918Z,23.23
2022-08-30T23:19:09.139Z,25.90
2022-08-30T23:21:37.251Z,24.20
2022-08-30T23:24:23.355Z,20.57
2022-08-30T23:27:09.215Z,20.50
2022-08-30T23:29:57.243Z,21.07
2022-08-30T23:32:44.391Z,19.47
2022-08-30T23:35:31.275Z,19.80
2022-08-30T23:38:17.636Z,20.40
2022-08-30T23:41:03.411Z,19.93
2022-08-30T23:43:48.823Z,19.43
2022-08-30T23:46:34.307Z,19.87
2022-08-30T23:49:21.454Z,21.30
2022-08-30T23:52:07.298Z,19.50
2022-08-30T23:54:55.767Z,19.23
2022-08-30T23:57:43.641Z,18.53
